Time;durP1;ratioP1;P1;durP2;ratioP2;P2;SDS_P1;SDS_P2;PMS_P1;PMS_P2;Temp;Humidity;BMP_temperature;BMP_pressure;BME280_temperature;BME280_humidity;BME280_pressure;Samples;Min_cycle;Max_cycle;Signal;HPM_P1;HPM_P2
2021/11/10 00:00:13;;;;;;;5.85;2.92;;;16.90;99.90;;;;;;5094099;28;20031;-76
2021/11/10 00:02:38;;;;;;;5.07;2.60;;;16.90;99.90;;;;;;5094033;28;20111;-77
2021/11/10 00:05:05;;;;;;;4.68;2.90;;;16.90;99.90;;;;;;5094310;28;20472;-76
2021/11/10 00:07:31;;;;;;;4.70;2.50;;;16.90;99.90;;;;;;5093817;28;20031;-76
2021/11/10 00:09:57;;;;;;;5.20;3.10;;;16.90;99.90;;;;;;5094008;28;20092;-77
2021/11/10 00:12:23;;;;;;;5.63;2.92;;;16.90;99.90;;;;;;5093804;28;20095;-75
2021/11/10 00:14:48;;;;;;;6.03;2.72;;;16.90;99.90;;;;;;5093873;28;20427;-76
2021/11/10 00:17:15;;;;;;;4.63;2.70;;;16.80;99.90;;;;;;5093422;28;20101;-76
2021/11/10 00:19:40;;;;;;;5.90;2.75;;;16.80;99.90;;;;;;5093764;28;20375;-77
2021/11/10 00:22:06;;;;;;;4.63;2.72;;;16.80;99.90;;;;;;5094107;28;20032;-76
2021/11/10 00:24:32;;;;;;;4.85;3.00;;;16.80;99.90;;;;;;5092255;28;20028;-76
2021/11/10 00:26:58;;;;;;;5.47;2.75;;;16.80;99.90;;;;;;5093417;28;20054;-77
2021/11/10 00:29:23;;;;;;;5.85;3.25;;;16.80;99.90;;;;;;5093439;28;20024;-77
2021/11/10 00:31:49;;;;;;;5.63;2.80;;;16.80;99.90;;;;;;5093491;28;20032;-77
2021/11/10 00:34:15;;;;;;;5.00;2.80;;;16.80;99.90;;;;;;5093280;28;20032;-77
2021/11/10 00:36:40;;;;;;;6.95;3.30;;;16.80;99.90;;;;;;5091921;28;20043;-77
2021/11/10 00:39:06;;;;;;;4.63;2.90;;;16.80;99.90;;;;;;5093739;28;20028;-77
2021/11/10 00:41:32;;;;;;;5.57;2.75;;;16.70;99.90;;;;;;5093159;28;20103;-77
2021/11/10 00:44:01;;;;;;;4.85;2.55;;;16.70;99.90;;;;;;5093372;28;20024;-76
2021/11/10 00:46:31;;;;;;;6.18;3.17;;;16.70;99.90;;;;;;5092934;28;20047;-77
2021/11/10 00:48:58;;;;;;;5.38;2.72;;;16.70;99.90;;;;;;5093323;28;20042;-76
2021/11/10 00:51:23;;;;;;;5.68;2.88;;;16.70;99.90;;;;;;5092150;28;20035;-76
2021/11/10 00:53:49;;;;;;;4.40;2.70;;;16.60;99.90;;;;;;5093173;28;20024;-76
2021/11/10 00:56:15;;;;;;;4.07;2.30;;;16.60;99.90;;;;;;5092990;28;20384;-77
2021/11/10 00:58:41;;;;;;;4.82;2.88;;;16.60;99.90;;;;;;5092950;28;20086;-76
2021/11/10 01:01:07;;;;;;;4.60;2.85;;;16.60;99.90;;;;;;5093379;28;20149;-76
2021/11/10 01:03:32;;;;;;;5.10;2.92;;;16.60;99.90;;;;;;5092770;28;20077;-77
2021/11/10 01:05:59;;;;;;;5.15;3.05;;;16.60;99.90;;;;;;5092872;28;20102;-76
2021/11/10 01:08:26;;;;;;;6.30;2.60;;;16.50;99.90;;;;;;5092755;28;20024;-76
2021/11/10 01:10:52;;;;;;;4.45;2.85;;;16.60;99.90;;;;;;5092760;28;20431;-77
2021/11/10 01:13:19;;;;;;;4.75;2.80;;;16.50;99.90;;;;;;5092498;28;20024;-76
2021/11/10 01:15:45;;;;;;;5.00;2.97;;;16.50;99.90;;;;;;5092664;28;20056;-77
2021/11/10 01:18:11;;;;;;;5.60;2.80;;;16.50;99.90;;;;;;5092290;28;20073;-75
2021/11/10 01:20:37;;;;;;;5.10;3.08;;;16.50;99.90;;;;;;5093044;28;20024;-76
2021/11/10 01:23:04;;;;;;;5.57;3.05;;;16.50;99.90;;;;;;5092499;28;20024;-75
2021/11/10 01:25:29;;;;;;;5.03;3.08;;;16.50;99.90;;;;;;5092397;28;20388;-76
2021/11/10 01:27:55;;;;;;;3.97;2.58;;;16.50;99.90;;;;;;5092481;28;20020;-76
2021/11/10 01:30:22;;;;;;;5.80;3.40;;;16.40;99.90;;;;;;5092382;28;20035;-75
2021/11/10 01:32:49;;;;;;;5.55;3.38;;;16.40;99.90;;;;;;5092398;28;20597;-75
2021/11/10 01:35:16;;;;;;;4.72;3.30;;;16.40;99.90;;;;;;5092260;28;20024;-76
2021/11/10 01:37:42;;;;;;;5.43;2.72;;;16.40;99.90;;;;;;5092181;28;20032;-76
2021/11/10 01:40:09;;;;;;;5.10;2.95;;;16.40;99.90;;;;;;5092635;28;20380;-75
2021/11/10 01:42:43;;;;;;;5.45;3.15;;;16.40;99.90;;;;;;5092447;28;20040;-77
2021/11/10 01:45:10;;;;;;;4.65;3.15;;;16.40;99.90;;;;;;5092212;28;20013;-76
2021/11/10 01:47:36;;;;;;;5.95;3.22;;;16.40;99.90;;;;;;5092498;28;20078;-77
2021/11/10 01:50:05;;;;;;;5.20;3.17;;;16.30;99.90;;;;;;5092230;28;20430;-77
2021/11/10 01:52:31;;;;;;;4.93;3.10;;;16.30;99.90;;;;;;5091919;28;20107;-77
2021/11/10 01:54:56;;;;;;;5.28;3.30;;;16.30;99.90;;;;;;5092042;28;20420;-77
2021/11/10 01:57:22;;;;;;;5.72;3.40;;;16.30;99.90;;;;;;5091674;28;20108;-76
2021/11/10 02:00:00;;;;;;;6.70;3.22;;;16.30;99.90;;;;;;5091742;28;20038;-76
2021/11/10 02:02:29;;;;;;;5.03;3.00;;;16.30;99.90;;;;;;5091687;28;20078;-75
2021/11/10 02:04:55;;;;;;;5.70;3.17;;;16.30;99.90;;;;;;5090528;28;20028;-75
2021/11/10 02:07:21;;;;;;;5.50;3.00;;;16.30;99.90;;;;;;5091607;28;20502;-76
2021/11/10 02:09:48;;;;;;;5.05;2.95;;;16.30;99.90;;;;;;5091769;28;20024;-76
2021/11/10 02:12:15;;;;;;;4.63;3.17;;;16.30;99.90;;;;;;5091528;28;20476;-75
2021/11/10 02:14:41;;;;;;;5.65;3.35;;;16.30;99.90;;;;;;5091896;28;20031;-75
2021/11/10 02:17:12;;;;;;;6.43;3.00;;;16.40;99.90;;;;;;5091809;28;20035;-76
2021/11/10 02:19:38;;;;;;;4.85;2.80;;;16.40;99.90;;;;;;5092162;28;20052;-76
2021/11/10 02:22:04;;;;;;;5.97;3.13;;;16.40;99.90;;;;;;5091899;28;20042;-75
2021/11/10 02:24:31;;;;;;;5.50;3.00;;;16.30;99.90;;;;;;5091437;28;20035;-75
2021/11/10 02:26:58;;;;;;;6.20;3.58;;;16.30;99.90;;;;;;5091690;28;20580;-75
2021/11/10 02:29:26;;;;;;;5.35;3.33;;;16.40;99.90;;;;;;5091356;28;20031;-75
2021/11/10 02:31:54;;;;;;;5.07;3.42;;;16.40;99.90;;;;;;5091551;28;20024;-75
2021/11/10 02:34:20;;;;;;;6.43;2.88;;;16.40;99.90;;;;;;5091310;28;20379;-75
2021/11/10 02:36:46;;;;;;;4.90;3.00;;;16.30;99.90;;;;;;5091299;28;20031;-76
2021/11/10 02:39:21;;;;;;;4.97;3.25;;;16.40;99.90;;;;;;5091224;28;20028;-76
2021/11/10 02:41:47;;;;;;;6.13;3.20;;;16.30;99.90;;;;;;5090157;28;20386;-76
2021/11/10 02:44:16;;;;;;;4.75;3.08;;;16.40;99.90;;;;;;5091298;28;20052;-76
2021/11/10 02:46:43;;;;;;;4.93;3.05;;;16.30;99.90;;;;;;5091248;28;20027;-74
2021/11/10 02:49:09;;;;;;;5.75;3.40;;;16.30;99.90;;;;;;5090983;28;20042;-75
2021/11/10 02:51:36;;;;;;;5.00;3.17;;;16.40;99.90;;;;;;5091567;28;20020;-74
2021/11/10 02:54:07;;;;;;;6.70;3.47;;;16.40;99.90;;;;;;5091202;28;20066;-75
2021/11/10 02:56:33;;;;;;;4.80;3.38;;;16.40;99.90;;;;;;5091022;28;20032;-74
2021/11/10 02:58:58;;;;;;;5.57;3.08;;;16.40;99.90;;;;;;5091146;28;20039;-74
2021/11/10 03:01:24;;;;;;;7.30;3.50;;;16.40;99.90;;;;;;5090981;28;20059;-74
2021/11/10 03:03:50;;;;;;;5.18;2.85;;;16.40;99.90;;;;;;5091116;28;20142;-74
2021/11/10 03:06:15;;;;;;;4.85;3.25;;;16.40;99.90;;;;;;5090905;28;20169;-74
2021/11/10 03:08:42;;;;;;;5.20;3.00;;;16.40;99.90;;;;;;5091179;28;20028;-73
2021/11/10 03:11:08;;;;;;;5.28;3.22;;;16.40;99.90;;;;;;5091288;28;20031;-73
2021/11/10 03:13:39;;;;;;;5.47;3.47;;;16.40;99.90;;;;;;5091894;28;20028;-74
2021/11/10 03:16:04;;;;;;;5.00;3.40;;;16.40;99.90;;;;;;5095417;28;20028;-74
2021/11/10 03:18:30;;;;;;;4.82;3.00;;;16.40;99.90;;;;;;5093274;28;20040;-75
2021/11/10 03:20:55;;;;;;;5.80;3.33;;;16.40;99.90;;;;;;5095054;28;20028;-74
2021/11/10 03:23:21;;;;;;;4.65;3.10;;;16.40;99.90;;;;;;5094688;28;20027;-74
2021/11/10 03:25:47;;;;;;;5.20;2.95;;;16.40;99.90;;;;;;5094960;28;20025;-74
2021/11/10 03:28:13;;;;;;;5.63;3.10;;;16.40;99.90;;;;;;5094584;28;20449;-74
2021/11/10 03:30:39;;;;;;;4.85;3.15;;;16.40;99.90;;;;;;5094800;28;20024;-74
2021/11/10 03:33:05;;;;;;;5.90;3.40;;;16.40;99.90;;;;;;5095081;28;20103;-74
2021/11/10 03:35:31;;;;;;;5.47;3.08;;;16.40;99.90;;;;;;5094455;28;20028;-73
2021/11/10 03:37:56;;;;;;;6.68;3.70;;;16.40;99.90;;;;;;5094611;28;20036;-73
2021/11/10 03:40:22;;;;;;;5.65;3.28;;;16.40;99.90;;;;;;5094349;28;20111;-73
2021/11/10 03:42:48;;;;;;;5.65;3.20;;;16.40;99.90;;;;;;5094731;28;20063;-74
2021/11/10 03:45:14;;;;;;;6.22;3.50;;;16.40;99.90;;;;;;5094356;28;20476;-73
2021/11/10 03:47:40;;;;;;;6.20;3.20;;;16.40;99.90;;;;;;5094321;28;20039;-74
2021/11/10 03:50:06;;;;;;;5.65;3.22;;;16.40;99.90;;;;;;5094680;28;20024;-74
2021/11/10 03:52:32;;;;;;;5.65;3.03;;;16.40;99.90;;;;;;5094147;28;20028;-74
2021/11/10 03:54:58;;;;;;;5.05;3.13;;;16.50;99.90;;;;;;5094397;28;20078;-75
2021/11/10 03:57:23;;;;;;;5.05;3.10;;;16.50;99.90;;;;;;5093972;28;20044;-74
2021/11/10 03:59:49;;;;;;;5.68;3.45;;;16.50;99.90;;;;;;5094152;28;20027;-74
2021/11/10 04:02:15;;;;;;;6.60;3.30;;;16.50;99.90;;;;;;5093699;28;20062;-74
2021/11/10 04:04:41;;;;;;;6.00;3.30;;;16.50;99.90;;;;;;5094075;28;20062;-74
2021/11/10 04:07:06;;;;;;;10.27;3.25;;;16.50;99.90;;;;;;5094369;28;20038;-74
2021/11/10 04:09:32;;;;;;;5.78;3.28;;;16.50;99.90;;;;;;5093839;28;20024;-73
2021/11/10 04:11:58;;;;;;;5.43;3.35;;;16.50;99.90;;;;;;5094224;28;20395;-73
2021/11/10 04:14:23;;;;;;;5.28;3.15;;;16.50;99.90;;;;;;5093783;28;20048;-74
2021/11/10 04:16:49;;;;;;;4.57;3.20;;;16.50;99.90;;;;;;5093854;28;20048;-74
2021/11/10 04:19:15;;;;;;;4.18;3.00;;;16.50;99.90;;;;;;5093687;28;20074;-73
2021/11/10 04:21:40;;;;;;;4.97;3.17;;;16.50;99.90;;;;;;5093958;28;20089;-73
2021/11/10 04:24:07;;;;;;;5.55;3.28;;;16.60;99.90;;;;;;5094206;28;20077;-73
2021/11/10 04:26:36;;;;;;;5.53;3.05;;;16.60;99.90;;;;;;5092199;28;20043;-73
2021/11/10 04:29:04;;;;;;;5.07;3.20;;;16.60;99.90;;;;;;5093735;28;20035;-73
2021/11/10 04:31:30;;;;;;;6.07;2.97;;;16.60;99.90;;;;;;5093387;28;20052;-75
2021/11/10 04:33:56;;;;;;;4.63;3.13;;;16.60;99.90;;;;;;5093530;28;20032;-73
2021/11/10 04:36:25;;;;;;;5.00;2.85;;;16.60;99.90;;;;;;5092211;28;20030;-76
2021/11/10 04:38:51;;;;;;;7.22;3.70;;;16.60;99.90;;;;;;5093648;28;20040;-77
2021/11/10 04:41:17;;;;;;;5.43;3.17;;;16.70;99.90;;;;;;5093140;28;20028;-76
2021/11/10 04:43:42;;;;;;;5.68;3.30;;;16.70;99.90;;;;;;5093571;28;20051;-77
2021/11/10 04:48:37;;;;;;;6.05;3.40;;;16.70;99.90;;;;;;5093887;28;20028;-75
2021/11/10 04:51:04;;;;;;;7.00;3.80;;;16.70;99.90;;;;;;5093749;28;20024;-76
2021/11/10 04:53:30;;;;;;;5.32;3.25;;;16.70;99.90;;;;;;5091707;28;20016;-77
2021/11/10 04:55:56;;;;;;;5.95;3.28;;;16.70;99.90;;;;;;5094402;28;20070;-77
2021/11/10 04:58:21;;;;;;;7.38;3.70;;;16.70;99.90;;;;;;5093878;28;20046;-74
2021/11/10 05:00:47;;;;;;;5.18;3.38;;;16.70;99.90;;;;;;5094860;28;20107;-74
2021/11/10 05:03:13;;;;;;;5.13;3.20;;;16.70;99.90;;;;;;5093894;28;20024;-74
2021/11/10 05:05:39;;;;;;;4.95;3.20;;;16.70;99.90;;;;;;5093815;28;20529;-74
2021/11/10 05:08:05;;;;;;;6.05;3.30;;;16.70;99.90;;;;;;5093247;28;20028;-76
2021/11/10 05:10:30;;;;;;;4.63;2.92;;;16.70;99.90;;;;;;5092832;28;20020;-75
2021/11/10 05:12:56;;;;;;;7.03;3.58;;;16.70;99.90;;;;;;5093136;28;20022;-74
2021/11/10 05:15:22;;;;;;;5.32;3.60;;;16.80;99.90;;;;;;5092622;28;20356;-79
2021/11/10 05:17:47;;;;;;;5.90;3.22;;;16.80;99.90;;;;;;5092983;28;20498;-75
2021/11/10 05:20:13;;;;;;;4.68;3.20;;;16.80;99.90;;;;;;5092782;28;20097;-76
2021/11/10 05:22:39;;;;;;;6.07;3.17;;;16.70;99.90;;;;;;5092976;28;20064;-71
2021/11/10 05:25:05;;;;;;;4.80;3.17;;;16.80;99.90;;;;;;5093186;28;20098;-72
2021/11/10 05:27:31;;;;;;;4.85;3.00;;;16.80;99.90;;;;;;5092205;28;20024;-71
2021/11/10 05:29:57;;;;;;;5.40;3.28;;;16.80;99.90;;;;;;5092449;28;20069;-72
2021/11/10 05:32:22;;;;;;;6.07;3.55;;;16.80;99.90;;;;;;5071955;28;20028;-72
2021/11/10 05:34:50;;;;;;;5.18;3.28;;;16.80;99.90;;;;;;5072206;28;20032;-72
2021/11/10 05:37:16;;;;;;;6.35;3.03;;;16.80;99.90;;;;;;5071299;28;20379;-72
2021/11/10 05:39:41;;;;;;;6.95;3.17;;;16.90;99.90;;;;;;5072139;28;20115;-72
2021/11/10 05:42:08;;;;;;;4.82;3.33;;;16.80;99.90;;;;;;5072133;28;20027;-71
2021/11/10 05:44:34;;;;;;;4.63;3.30;;;16.90;99.90;;;;;;5071957;28;20542;-72
2021/11/10 05:47:00;;;;;;;6.00;3.15;;;16.90;99.90;;;;;;5071933;28;20028;-71
2021/11/10 05:49:25;;;;;;;4.00;2.72;;;16.90;99.90;;;;;;5071673;28;20074;-71
2021/11/10 05:51:51;;;;;;;6.53;3.33;;;16.90;99.90;;;;;;5071912;28;20033;-71
2021/11/10 05:54:17;;;;;;;5.20;3.00;;;16.90;99.90;;;;;;5071536;28;20059;-71
2021/11/10 05:56:43;;;;;;;4.47;3.00;;;16.90;99.90;;;;;;5087187;28;20476;-71
2021/11/10 05:59:09;;;;;;;4.28;3.13;;;16.90;99.90;;;;;;5071318;28;20525;-72
2021/11/10 06:01:36;;;;;;;5.05;3.03;;;16.90;99.90;;;;;;5087698;28;20028;-71
2021/11/10 06:04:02;;;;;;;4.70;3.03;;;16.90;99.90;;;;;;5088434;28;20032;-72
2021/11/10 06:06:28;;;;;;;5.20;2.95;;;16.90;99.90;;;;;;5091829;28;20045;-71
2021/11/10 06:08:54;;;;;;;4.43;3.00;;;16.90;99.90;;;;;;5091974;28;20024;-71
2021/11/10 06:11:20;;;;;;;6.00;3.30;;;16.90;99.90;;;;;;5091692;28;20020;-71
2021/11/10 06:13:46;;;;;;;5.28;3.58;;;16.90;99.90;;;;;;5091836;28;20032;-70
2021/11/10 06:16:11;;;;;;;5.78;3.17;;;16.90;99.90;;;;;;5091280;28;20099;-71
2021/11/10 06:18:38;;;;;;;6.18;3.20;;;16.90;99.90;;;;;;5091999;28;20411;-72
2021/11/10 06:21:04;;;;;;;4.82;3.13;;;17.00;99.90;;;;;;5091860;28;20024;-72
2021/11/10 06:23:30;;;;;;;4.18;2.92;;;16.90;99.90;;;;;;5091281;28;20028;-72
2021/11/10 06:25:56;;;;;;;4.68;3.05;;;17.00;99.90;;;;;;5091521;28;20563;-72
2021/11/10 06:28:21;;;;;;;5.32;3.20;;;17.00;99.90;;;;;;5091151;28;20058;-70
2021/11/10 06:30:47;;;;;;;6.32;3.15;;;17.00;99.90;;;;;;5091474;28;20110;-72
2021/11/10 06:33:12;;;;;;;5.97;3.42;;;17.00;99.90;;;;;;5090860;28;20024;-71
2021/11/10 06:35:38;;;;;;;4.00;2.80;;;17.00;99.90;;;;;;5090818;28;20036;-74
2021/11/10 06:38:04;;;;;;;4.93;3.15;;;17.00;99.90;;;;;;5091525;28;20044;-74
2021/11/10 06:40:30;;;;;;;5.07;2.97;;;17.00;99.90;;;;;;5091253;28;20024;-72
2021/11/10 06:42:56;;;;;;;5.55;3.17;;;17.00;99.90;;;;;;5091557;28;20030;-73
2021/11/10 06:45:22;;;;;;;5.70;3.25;;;17.00;99.90;;;;;;5091294;28;20491;-72
2021/11/10 06:47:49;;;;;;;10.77;3.42;;;17.00;99.90;;;;;;5090686;28;20046;-70
2021/11/10 06:50:14;;;;;;;6.93;3.03;;;17.10;99.90;;;;;;5094572;28;20016;-69
2021/11/10 06:52:40;;;;;;;6.07;3.40;;;17.10;99.90;;;;;;5095422;28;20476;-70
2021/11/10 06:55:08;;;;;;;5.30;3.00;;;17.10;99.90;;;;;;5095440;28;20103;-69
2021/11/10 06:57:35;;;;;;;6.25;3.47;;;17.10;99.90;;;;;;5095181;28;20043;-68
2021/11/10 07:00:02;;;;;;;7.18;3.67;;;17.10;99.90;;;;;;5095234;28;20488;-68
2021/11/10 07:02:28;;;;;;;6.07;3.30;;;17.10;99.90;;;;;;5094749;28;20503;-67
2021/11/10 07:04:53;;;;;;;7.07;3.53;;;17.10;99.90;;;;;;5095296;28;20031;-68
2021/11/10 07:07:19;;;;;;;7.32;3.20;;;17.10;99.90;;;;;;5094331;28;20100;-67
2021/11/10 07:09:45;;;;;;;4.70;3.30;;;17.10;99.90;;;;;;5095182;28;20024;-67
2021/11/10 07:12:11;;;;;;;7.30;4.50;;;17.20;99.90;;;;;;5095049;28;20028;-70
2021/11/10 07:14:37;;;;;;;11.27;6.07;;;17.10;99.60;;;;;;5089863;28;20023;-74
2021/11/10 07:17:02;;;;;;;8.38;5.32;;;16.90;97.80;;;;;;5084985;28;20107;-72
2021/11/10 07:19:28;;;;;;;12.80;5.13;;;17.00;99.60;;;;;;5093381;28;21028;-73
2021/11/10 07:21:54;;;;;;;6.85;4.00;;;17.10;99.90;;;;;;5093600;28;20405;-76
2021/11/10 07:24:20;;;;;;;12.57;4.47;;;17.10;99.70;;;;;;5092731;28;20380;-74
2021/11/10 07:26:45;;;;;;;8.20;4.10;;;17.10;99.70;;;;;;5093429;28;20077;-76
2021/11/10 07:29:11;;;;;;;7.93;4.35;;;17.20;99.60;;;;;;5093283;28;20035;-74
2021/11/10 07:31:37;;;;;;;5.72;3.60;;;17.20;99.50;;;;;;5092954;28;20024;-76
2021/11/10 07:34:04;;;;;;;9.65;4.22;;;17.20;99.70;;;;;;5093463;28;20544;-75
2021/11/10 07:36:30;;;;;;;5.95;3.78;;;17.30;99.90;;;;;;5092974;28;20020;-78
2021/11/10 07:38:56;;;;;;;7.07;3.92;;;17.30;99.90;;;;;;5093282;28;20027;-76
2021/11/10 07:41:27;;;;;;;6.63;3.85;;;17.30;99.80;;;;;;5093371;28;20039;-77
2021/11/10 07:43:54;;;;;;;9.18;3.63;;;17.40;99.80;;;;;;5093397;28;20059;-78
2021/11/10 07:46:22;;;;;;;6.28;3.47;;;17.40;99.70;;;;;;5090069;28;20119;-77
2021/11/10 07:48:48;;;;;;;7.22;3.60;;;17.40;99.70;;;;;;5094422;28;20050;-78
2021/11/10 07:51:15;;;;;;;5.75;3.40;;;17.40;99.60;;;;;;5094110;28;20031;-78
2021/11/10 07:53:41;;;;;;;6.90;3.83;;;17.50;99.60;;;;;;5093988;28;20024;-74
2021/11/10 07:56:07;;;;;;;5.07;3.30;;;17.50;99.50;;;;;;5080015;28;20032;-74
2021/11/10 07:58:34;;;;;;;7.80;3.35;;;17.50;99.50;;;;;;5073066;28;20040;-74
2021/11/10 08:01:00;;;;;;;5.43;3.25;;;17.60;99.50;;;;;;5080728;28;20059;-72
2021/11/10 08:03:26;;;;;;;5.93;3.00;;;17.60;99.40;;;;;;5093732;28;20051;-75
2021/11/10 08:05:52;;;;;;;4.85;3.15;;;17.60;99.30;;;;;;5093522;28;20050;-76
2021/11/10 08:08:17;;;;;;;6.60;3.20;;;17.60;99.30;;;;;;5093726;28;20379;-75
2021/11/10 08:10:44;;;;;;;4.55;3.17;;;17.60;99.30;;;;;;5089458;28;20032;-74
2021/11/10 08:13:10;;;;;;;8.45;3.92;;;17.60;99.30;;;;;;5093493;28;20107;-75
2021/11/10 08:15:36;;;;;;;7.95;3.63;;;17.60;99.20;;;;;;5093833;28;20518;-75
2021/11/10 08:18:03;;;;;;;8.40;3.40;;;17.60;99.20;;;;;;5093657;28;20376;-75
2021/11/10 08:20:28;;;;;;;7.20;3.88;;;17.70;99.20;;;;;;5093334;28;20952;-75
2021/11/10 08:22:54;;;;;;;9.23;4.28;;;17.70;99.20;;;;;;5093667;28;20020;-75
2021/11/10 08:25:20;;;;;;;6.00;3.67;;;17.70;99.10;;;;;;5093436;28;20077;-74
2021/11/10 08:27:46;;;;;;;5.50;3.65;;;17.70;99.00;;;;;;5093491;28;20027;-75
2021/11/10 08:30:18;;;;;;;8.77;3.92;;;17.70;99.10;;;;;;5092725;28;20031;-76
2021/11/10 08:32:45;;;;;;;7.05;3.80;;;17.70;99.00;;;;;;5093636;28;20507;-75
2021/11/10 08:35:11;;;;;;;6.55;3.83;;;17.70;99.00;;;;;;5093065;28;20077;-75
2021/11/10 08:37:38;;;;;;;7.03;4.00;;;17.70;98.90;;;;;;5093545;28;20036;-75
2021/11/10 08:40:05;;;;;;;6.10;3.42;;;17.70;98.90;;;;;;5093706;28;20020;-75
2021/11/10 08:42:34;;;;;;;6.13;3.67;;;17.80;98.90;;;;;;5090285;28;20035;-76
2021/11/10 08:45:07;;;;;;;5.65;3.60;;;17.70;98.90;;;;;;5083738;28;20018;-75
2021/11/10 08:47:34;;;;;;;7.07;4.28;;;17.70;98.90;;;;;;5092931;28;20032;-75
2021/11/10 08:50:00;;;;;;;7.25;3.60;;;17.80;98.90;;;;;;5091781;28;20464;-75
2021/11/10 08:52:27;;;;;;;7.28;3.50;;;17.80;98.80;;;;;;5093172;28;20032;-75
2021/11/10 08:54:54;;;;;;;6.30;3.90;;;17.80;98.80;;;;;;5093288;28;20012;-72
2021/11/10 08:57:20;;;;;;;6.78;3.97;;;17.80;98.80;;;;;;5092592;28;20043;-73
2021/11/10 08:59:46;;;;;;;9.52;4.03;;;17.90;98.80;;;;;;5093066;28;20110;-74
2021/11/10 09:02:12;;;;;;;6.68;3.85;;;17.90;98.80;;;;;;5092515;28;20052;-72
2021/11/10 09:04:37;;;;;;;6.80;3.78;;;17.90;98.70;;;;;;5092686;28;20035;-73
2021/11/10 09:07:04;;;;;;;6.00;3.58;;;17.90;98.70;;;;;;5092719;28;20016;-74
2021/11/10 09:09:30;;;;;;;8.07;3.97;;;17.90;98.70;;;;;;5092697;28;20053;-73
2021/11/10 09:11:55;;;;;;;5.50;3.53;;;17.90;98.60;;;;;;5091986;28;20028;-73
2021/11/10 09:14:21;;;;;;;5.85;3.58;;;17.90;98.50;;;;;;5091892;28;20497;-74
2021/11/10 09:16:47;;;;;;;8.75;3.63;;;17.90;98.60;;;;;;5092714;28;20580;-73
2021/11/10 09:19:13;;;;;;;6.50;3.58;;;18.00;98.50;;;;;;5092672;28;20085;-73
2021/11/10 09:21:39;;;;;;;5.72;3.40;;;18.00;98.50;;;;;;5092660;28;20428;-71
2021/11/10 09:24:05;;;;;;;6.65;3.63;;;18.00;98.40;;;;;;5092796;28;20020;-73
2021/11/10 09:26:31;;;;;;;7.53;3.70;;;18.00;98.50;;;;;;5092352;28;20062;-73
2021/11/10 09:28:57;;;;;;;5.85;3.67;;;18.00;98.30;;;;;;5092534;28;20020;-74
2021/11/10 09:31:23;;;;;;;6.00;3.75;;;18.10;98.30;;;;;;5092447;28;20122;-74
2021/11/10 09:33:53;;;;;;;4.68;3.20;;;18.10;98.30;;;;;;5092189;28;20024;-73
2021/11/10 09:36:19;;;;;;;5.68;3.33;;;18.10;98.30;;;;;;5092149;28;20472;-73
2021/11/10 09:38:46;;;;;;;6.47;3.53;;;18.10;98.10;;;;;;5092331;28;20063;-76
2021/11/10 09:41:12;;;;;;;5.28;3.40;;;18.10;98.10;;;;;;5092116;28;20016;-71
2021/11/10 09:43:41;;;;;;;7.25;3.70;;;18.20;98.30;;;;;;5092698;28;20407;-74
2021/11/10 09:46:08;;;;;;;6.90;3.60;;;18.20;98.40;;;;;;5092683;28;20137;-73
2021/11/10 09:48:35;;;;;;;5.13;3.33;;;18.30;98.40;;;;;;5092752;28;20047;-73
2021/11/10 09:51:02;;;;;;;6.78;3.58;;;18.30;98.30;;;;;;5091086;28;20399;-74
2021/11/10 09:53:28;;;;;;;5.20;3.53;;;18.30;98.20;;;;;;5091918;28;20031;-74
2021/11/10 09:55:55;;;;;;;5.13;3.08;;;18.30;98.10;;;;;;5092221;28;20028;-74
2021/11/10 09:58:22;;;;;;;5.90;3.10;;;18.30;98.00;;;;;;5091552;28;20472;-74
2021/11/10 10:00:52;;;;;;;4.55;3.05;;;18.30;98.00;;;;;;5092054;28;20024;-73
2021/11/10 10:03:20;;;;;;;6.05;3.65;;;18.30;97.90;;;;;;5091947;28;20031;-73
2021/11/10 10:05:47;;;;;;;6.43;3.45;;;18.40;98.00;;;;;;5090931;28;20028;-73
2021/11/10 10:08:14;;;;;;;7.38;3.80;;;18.40;97.90;;;;;;5091029;28;20507;-74
2021/11/10 10:10:40;;;;;;;5.65;3.13;;;18.40;97.80;;;;;;5091501;28;20016;-73
2021/11/10 10:13:07;;;;;;;5.57;3.20;;;18.40;97.70;;;;;;5092075;28;20414;-72
2021/11/10 10:15:35;;;;;;;7.20;3.15;;;18.40;97.80;;;;;;5091697;28;20409;-73
2021/11/10 10:18:02;;;;;;;6.07;3.00;;;18.50;97.70;;;;;;5091853;28;20122;-74
2021/11/10 10:20:31;;;;;;;4.43;3.40;;;18.50;97.70;;;;;;5090204;28;20024;-74
2021/11/10 10:23:00;;;;;;;6.07;3.25;;;18.50;97.60;;;;;;5092017;28;20028;-74
2021/11/10 10:25:50;;;;;;;5.40;3.22;;;18.50;97.70;;;;;;5091468;28;20029;-74
2021/11/10 10:28:23;;;;;;;4.80;3.03;;;18.50;97.50;;;;;;5091454;28;20020;-73
2021/11/10 10:30:52;;;;;;;6.13;3.53;;;18.50;97.50;;;;;;5091770;28;20016;-72
2021/11/10 10:33:24;;;;;;;4.60;2.97;;;18.60;97.50;;;;;;5091447;28;20540;-73
2021/11/10 10:35:54;;;;;;;5.47;3.83;;;18.60;97.50;;;;;;5091715;28;20491;-73
2021/11/10 10:38:48;;;;;;;5.30;2.90;;;18.60;97.80;;;;;;5091319;28;20032;-76
2021/11/10 10:41:19;;;;;;;5.50;3.50;;;18.60;97.40;;;;;;5075145;28;20032;-70
2021/11/10 10:43:49;;;;;;;4.82;3.20;;;18.70;97.40;;;;;;5090387;28;20468;-75
2021/11/10 10:46:17;;;;;;;6.43;3.42;;;18.70;97.30;;;;;;5091490;28;20043;-75
2021/11/10 10:48:43;;;;;;;5.82;3.45;;;18.70;97.30;;;;;;5090939;28;20016;-75
2021/11/10 10:51:12;;;;;;;3.83;2.78;;;18.70;97.30;;;;;;5091321;28;20031;-72
2021/11/10 10:53:44;;;;;;;5.15;3.00;;;18.70;97.40;;;;;;5091710;28;20027;-75
2021/11/10 10:56:13;;;;;;;6.75;3.30;;;18.70;97.50;;;;;;5090341;28;20181;-76
2021/11/10 10:58:40;;;;;;;5.22;2.83;;;18.80;97.50;;;;;;5089889;28;20047;-70
2021/11/10 11:01:29;;;;;;;5.20;3.40;;;18.80;97.30;;;;;;5090112;28;20020;-78
2021/11/10 11:04:14;;;;;;;4.90;2.88;;;18.80;97.40;;;;;;5088713;28;20032;-74
2021/11/10 11:06:49;;;;;;;4.88;3.10;;;18.90;97.40;;;;;;5091075;28;20376;-73
2021/11/10 11:09:17;;;;;;;5.88;3.00;;;18.90;97.50;;;;;;5089766;28;20028;-74
2021/11/10 11:17:22;;;;;;;4.53;2.95;;;19.00;97.80;;;;;;5089883;28;20028;-69
2021/11/10 11:20:00;;;;;;;6.15;3.47;;;19.00;97.90;;;;;;5087705;28;20024;-70
2021/11/10 11:22:32;;;;;;;7.03;3.30;;;18.90;97.90;;;;;;5087054;28;20038;-69
2021/11/10 11:25:07;;;;;;;6.78;3.20;;;19.00;97.90;;;;;;5089681;28;20456;-70
2021/11/10 11:27:33;;;;;;;5.97;3.10;;;19.00;98.00;;;;;;5088261;28;20361;-73
2021/11/10 11:30:10;;;;;;;6.10;3.63;;;19.10;98.00;;;;;;5089782;28;20058;-73
2021/11/10 11:32:49;;;;;;;7.72;3.40;;;19.10;97.90;;;;;;5089090;28;20026;-71
2021/11/10 11:35:37;;;;;;;5.82;3.30;;;19.10;97.90;;;;;;5092365;28;20475;-73
2021/11/10 11:38:09;;;;;;;5.05;3.10;;;19.10;97.90;;;;;;5094621;28;20509;-73
2021/11/10 11:40:37;;;;;;;7.68;3.30;;;19.20;97.90;;;;;;5094986;28;20023;-74
2021/11/10 11:43:05;;;;;;;6.18;2.90;;;19.20;97.90;;;;;;5094423;28;20063;-69
2021/11/10 11:45:33;;;;;;;5.10;2.70;;;19.30;97.90;;;;;;5093583;28;20028;-69
2021/11/10 11:48:00;;;;;;;9.35;2.88;;;19.30;97.90;;;;;;5093925;28;20491;-71
2021/11/10 11:50:26;;;;;;;5.57;3.08;;;19.30;98.00;;;;;;5094457;28;20043;-73
2021/11/10 11:52:53;;;;;;;4.88;3.08;;;19.30;98.00;;;;;;5093089;28;20067;-70
2021/11/10 11:55:37;;;;;;;5.53;3.00;;;19.30;98.00;;;;;;5094166;28;20020;-72
2021/11/10 11:58:27;;;;;;;5.88;3.28;;;19.40;98.10;;;;;;5094251;28;20031;-72
2021/11/10 12:01:06;;;;;;;4.57;2.75;;;19.40;98.10;;;;;;5092071;28;20067;-70
2021/11/10 12:03:38;;;;;;;5.75;2.63;;;19.40;98.10;;;;;;5093927;28;20030;-74
2021/11/10 12:06:04;;;;;;;4.05;2.70;;;19.50;98.30;;;;;;5094660;28;20514;-74
2021/11/10 12:08:39;;;;;;;7.75;3.20;;;19.50;98.20;;;;;;5092607;28;20052;-74
2021/11/10 12:11:19;;;;;;;5.70;2.70;;;19.50;98.20;;;;;;5094341;28;20383;-69
2021/11/10 12:14:04;;;;;;;5.65;2.95;;;19.50;98.20;;;;;;5093481;28;20017;-70
2021/11/10 12:17:02;;;;;;;4.47;2.67;;;19.50;98.30;;;;;;5090869;28;20101;-73
2021/11/10 12:19:38;;;;;;;6.72;3.10;;;19.50;98.40;;;;;;5093787;28;20043;-71
2021/11/10 12:22:10;;;;;;;5.63;2.80;;;19.50;98.40;;;;;;5094249;28;20103;-72
2021/11/10 12:24:51;;;;;;;4.38;2.97;;;19.50;98.50;;;;;;5092659;28;20137;-73
2021/11/10 12:27:27;;;;;;;5.18;2.65;;;19.50;98.50;;;;;;5092102;28;20023;-68
2021/11/10 12:30:03;;;;;;;5.50;2.60;;;19.50;98.60;;;;;;5092522;28;20016;-71
2021/11/10 12:32:28;;;;;;;5.40;2.85;;;19.50;98.70;;;;;;5090632;28;20027;-70
2021/11/10 12:34:55;;;;;;;7.45;3.10;;;19.60;98.70;;;;;;5092287;28;20490;-76
2021/11/10 12:37:39;;;;;;;4.57;2.65;;;19.60;98.90;;;;;;5090208;28;20016;-72
2021/11/10 12:40:23;;;;;;;4.68;2.55;;;19.60;98.90;;;;;;5091579;28;20024;-71
2021/11/10 12:42:51;;;;;;;4.13;2.50;;;19.60;99.10;;;;;;5093634;28;20028;-74
2021/11/10 12:45:27;;;;;;;5.55;2.60;;;19.60;99.30;;;;;;5093111;28;20028;-72
2021/11/10 12:47:55;;;;;;;4.05;2.85;;;19.60;99.40;;;;;;5092484;28;20538;-73
2021/11/10 12:50:31;;;;;;;4.50;2.70;;;19.60;99.50;;;;;;5092899;28;20103;-70
2021/11/10 12:53:00;;;;;;;4.88;2.72;;;19.70;99.60;;;;;;5093436;28;20028;-72
2021/11/10 12:55:28;;;;;;;4.35;2.80;;;19.60;99.50;;;;;;5091706;28;20020;-73